createdAt,value
2017-08-10T00:01:25.536Z,12.60
2017-08-10T00:03:51.837Z,12.33
2017-08-10T00:06:18.145Z,12.77
2017-08-10T00:08:44.442Z,12.77
2017-08-10T00:11:11.773Z,12.93
2017-08-10T00:13:38.073Z,12.93
2017-08-10T00:16:04.405Z,12.40
2017-08-10T00:18:31.452Z,15.40
2017-08-10T00:20:57.745Z,16.00
2017-08-10T00:23:24.053Z,15.67
2017-08-10T00:25:50.376Z,14.23
2017-08-10T00:28:16.673Z,13.93
2017-08-10T00:30:42.982Z,13.73
2017-08-10T00:33:09.284Z,14.37
2017-08-10T00:35:35.585Z,15.33
2017-08-10T00:38:01.914Z,14.83
2017-08-10T00:40:28.209Z,13.97
2017-08-10T00:42:54.513Z,15.73
2017-08-10T00:45:20.826Z,16.70
2017-08-10T00:47:47.167Z,14.53
2017-08-10T00:50:13.469Z,16.53
2017-08-10T00:52:39.775Z,15.47
2017-08-10T00:55:07.813Z,16.47
2017-08-10T00:57:34.121Z,17.20
2017-08-10T01:00:01.326Z,14.70
2017-08-10T01:02:27.628Z,17.13
2017-08-10T01:04:53.933Z,14.87
2017-08-10T01:07:20.229Z,16.40
2017-08-10T01:09:46.537Z,16.40
2017-08-10T01:12:12.829Z,15.77
2017-08-10T01:14:39.128Z,16.20
2017-08-10T01:17:05.416Z,16.60
2017-08-10T01:19:32.749Z,15.80
2017-08-10T01:21:59.053Z,14.53
2017-08-10T01:24:25.341Z,16.07
2017-08-10T01:26:51.660Z,17.00
2017-08-10T01:29:17.980Z,17.53
2017-08-10T01:31:44.285Z,17.20
2017-08-10T01:34:10.620Z,17.33
2017-08-10T01:36:36.943Z,16.43
2017-08-10T01:39:03.332Z,16.70
2017-08-10T01:41:30.396Z,17.23
2017-08-10T01:43:56.708Z,17.50
2017-08-10T01:46:23.037Z,16.27
2017-08-10T01:48:50.133Z,17.57
2017-08-10T01:51:16.480Z,16.87
2017-08-10T01:53:42.793Z,17.60
2017-08-10T01:56:09.117Z,16.60
2017-08-10T01:58:35.441Z,17.43
2017-08-10T02:01:01.749Z,16.53
2017-08-10T02:03:28.073Z,14.47
2017-08-10T02:05:54.401Z,16.60
2017-08-10T02:08:20.696Z,16.53
2017-08-10T02:10:47.029Z,17.00
2017-08-10T02:13:13.329Z,17.37
2017-08-10T02:15:39.625Z,15.70
2017-08-10T02:18:06.937Z,16.20
2017-08-10T02:20:33.244Z,14.70
2017-08-10T02:22:59.532Z,17.13
2017-08-10T02:25:25.837Z,15.50
2017-08-10T02:27:52.172Z,16.10
2017-08-10T02:30:19.237Z,16.83
2017-08-10T02:32:46.282Z,15.20
2017-08-10T02:35:13.585Z,15.03
2017-08-10T02:37:39.906Z,15.07
2017-08-10T02:40:06.228Z,15.07
2017-08-10T02:42:32.529Z,16.33
2017-08-10T02:44:58.841Z,17.90
2017-08-10T02:47:25.137Z,17.30
2017-08-10T02:52:28.493Z,16.77
2017-08-10T02:54:55.521Z,17.20
2017-08-10T02:57:22.565Z,17.63
2017-08-10T02:59:48.875Z,15.57
2017-08-10T03:02:15.188Z,15.83
2017-08-10T03:04:41.517Z,16.23
2017-08-10T03:07:07.821Z,16.67
2017-08-10T03:09:34.122Z,17.70
2017-08-10T03:12:01.188Z,17.47
2017-08-10T03:14:27.505Z,17.03
2017-08-10T03:16:54.565Z,15.63
2017-08-10T03:19:20.854Z,15.53
2017-08-10T03:21:47.150Z,15.73
2017-08-10T03:24:13.478Z,15.50
2017-08-10T03:26:39.781Z,14.43
2017-08-10T03:29:06.070Z,13.83
2017-08-10T03:31:32.389Z,13.37
2017-08-10T03:33:58.729Z,15.00
2017-08-10T03:36:25.028Z,14.27
2017-08-10T03:38:51.365Z,14.00
2017-08-10T03:41:17.666Z,13.83
2017-08-10T03:43:43.970Z,13.93
2017-08-10T03:46:11.013Z,13.07
2017-08-10T03:48:39.049Z,13.33
2017-08-10T03:51:05.344Z,12.30
2017-08-10T03:53:31.652Z,13.13
2017-08-10T03:55:58.703Z,12.93
2017-08-10T03:58:25.734Z,13.43
2017-08-10T04:00:52.037Z,13.33
2017-08-10T04:03:18.330Z,13.00
2017-08-10T04:05:44.634Z,12.70
2017-08-10T04:08:11.664Z,12.10
2017-08-10T04:10:37.953Z,11.53
2017-08-10T04:13:04.248Z,12.17
2017-08-10T04:15:31.289Z,11.23
2017-08-10T04:17:58.313Z,11.33
2017-08-10T04:20:24.624Z,10.10
2017-08-10T04:22:50.929Z,9.80
2017-08-10T04:25:17.233Z,11.00
2017-08-10T04:27:43.626Z,10.10
2017-08-10T04:30:10.944Z,9.93
2017-08-10T04:32:37.237Z,9.23
2017-08-10T04:35:04.293Z,9.73
2017-08-10T04:37:30.580Z,10.00
2017-08-10T04:39:56.881Z,9.00
2017-08-10T04:42:23.189Z,8.83
2017-08-10T04:44:49.479Z,9.73
2017-08-10T04:47:15.816Z,10.57
2017-08-10T04:49:42.121Z,10.00
2017-08-10T04:52:08.433Z,9.60
2017-08-10T04:54:35.769Z,10.67
2017-08-10T04:57:02.058Z,9.37
2017-08-10T04:59:28.368Z,10.67
2017-08-10T05:01:54.682Z,11.40
2017-08-10T05:04:20.985Z,11.50
2017-08-10T05:06:47.286Z,10.23
2017-08-10T05:09:14.341Z,10.30
2017-08-10T05:11:41.689Z,11.40
2017-08-10T05:14:08.724Z,11.60
2017-08-10T05:16:35.006Z,11.07
2017-08-10T05:19:01.302Z,11.33
2017-08-10T05:21:27.594Z,11.10
2017-08-10T05:23:53.889Z,11.47
2017-08-10T05:26:20.193Z,10.50
2017-08-10T05:28:46.497Z,11.10
2017-08-10T05:31:13.545Z,11.43
2017-08-10T05:33:39.846Z,10.73
2017-08-10T05:36:06.174Z,13.07
2017-08-10T05:38:32.481Z,13.20
2017-08-10T05:40:58.765Z,11.97
2017-08-10T05:43:25.095Z,10.97
2017-08-10T05:45:51.394Z,10.83
2017-08-10T05:48:17.681Z,10.57
2017-08-10T05:50:43.992Z,10.60
2017-08-10T05:53:10.282Z,10.70
2017-08-10T05:55:36.585Z,10.60
2017-08-10T05:58:02.884Z,11.30
2017-08-10T06:00:30.189Z,10.87
2017-08-10T06:02:56.485Z,11.40
2017-08-10T06:05:22.785Z,10.27
2017-08-10T06:07:49.828Z,10.53
2017-08-10T06:10:16.127Z,9.47
2017-08-10T06:12:42.429Z,11.30
2017-08-10T06:15:08.724Z,10.13
2017-08-10T06:17:35.748Z,9.50
2017-08-10T06:20:02.053Z,9.90
2017-08-10T06:22:28.362Z,9.80
2017-08-10T06:24:54.656Z,11.23
2017-08-10T06:27:20.953Z,13.17
2017-08-10T06:29:47.261Z,12.23
2017-08-10T06:32:13.557Z,11.70
2017-08-10T06:34:40.598Z,10.63
2017-08-10T06:37:07.633Z,11.20
2017-08-10T06:39:33.928Z,11.43
2017-08-10T06:42:00.225Z,11.03
2017-08-10T06:44:26.515Z,11.47
2017-08-10T06:46:52.817Z,12.20
2017-08-10T06:49:19.189Z,11.37
2017-08-10T06:51:45.477Z,12.00
2017-08-10T06:54:11.794Z,11.93
2017-08-10T06:56:38.085Z,12.83
2017-08-10T06:59:04.386Z,12.77
2017-08-10T07:01:30.692Z,12.10
2017-08-10T07:03:56.990Z,12.30
2017-08-10T07:06:23.293Z,12.00
2017-08-10T07:08:49.577Z,11.77
2017-08-10T07:11:15.881Z,12.30
2017-08-10T07:13:42.173Z,12.10
2017-08-10T07:16:08.493Z,11.00
2017-08-10T07:18:34.793Z,11.77
2017-08-10T07:21:01.098Z,11.70
2017-08-10T07:23:27.385Z,10.87
2017-08-10T07:25:53.668Z,11.50
2017-08-10T07:28:19.969Z,10.10
2017-08-10T07:30:47.262Z,12.27
2017-08-10T07:33:13.557Z,11.63
2017-08-10T07:35:40.580Z,11.13
2017-08-10T07:38:06.863Z,11.70
2017-08-10T07:40:33.153Z,11.67
2017-08-10T07:43:00.187Z,11.30
2017-08-10T07:45:26.480Z,9.40
2017-08-10T07:47:52.779Z,9.37
2017-08-10T07:50:19.082Z,10.53
2017-08-10T07:52:45.388Z,9.93
2017-08-10T07:55:11.686Z,10.13
2017-08-10T07:57:37.993Z,10.07
2017-08-10T08:00:04.294Z,9.53
2017-08-10T08:02:30.580Z,8.83
2017-08-10T08:04:56.867Z,9.10
2017-08-10T08:07:23.905Z,8.53
2017-08-10T08:09:50.188Z,8.20
2017-08-10T08:12:16.469Z,8.33
2017-08-10T08:14:43.498Z,9.00
2017-08-10T08:17:09.789Z,10.10
2017-08-10T08:19:36.094Z,10.80
2017-08-10T08:22:02.402Z,10.27
2017-08-10T08:24:29.437Z,11.07
2017-08-10T08:26:55.730Z,9.57
2017-08-10T08:29:22.016Z,11.40
2017-08-10T08:31:48.309Z,11.60
2017-08-10T08:34:14.613Z,11.93
2017-08-10T08:36:41.929Z,11.70
2017-08-10T08:39:08.224Z,11.67
2017-08-10T08:41:34.524Z,11.90
2017-08-10T08:44:00.812Z,10.83
2017-08-10T08:46:27.833Z,9.70
2017-08-10T08:48:54.138Z,11.03
2017-08-10T08:51:20.429Z,9.90
2017-08-10T08:53:46.712Z,9.97
2017-08-10T08:56:12.993Z,9.63
2017-08-10T08:58:39.285Z,9.10
2017-08-10T09:01:05.574Z,9.33
2017-08-10T09:03:31.876Z,8.73
2017-08-10T09:05:58.200Z,9.80
2017-08-10T09:08:24.502Z,8.77
2017-08-10T09:10:50.797Z,10.90
2017-08-10T09:13:17.093Z,10.43
2017-08-10T09:15:43.377Z,10.60
2017-08-10T09:18:09.676Z,11.00
2017-08-10T09:20:35.957Z,10.33
2017-08-10T09:23:02.241Z,11.37
2017-08-10T09:25:28.544Z,10.97
2017-08-10T09:27:54.845Z,10.87
2017-08-10T09:30:21.893Z,10.37
2017-08-10T09:32:49.197Z,10.57
2017-08-10T09:35:15.489Z,11.47
2017-08-10T09:37:41.873Z,10.93
2017-08-10T09:40:08.164Z,11.07
2017-08-10T09:42:34.481Z,9.60
2017-08-10T09:45:00.777Z,9.97
2017-08-10T09:47:27.085Z,9.70
2017-08-10T09:49:53.412Z,10.50
2017-08-10T09:52:19.733Z,10.37
2017-08-10T09:54:46.042Z,11.83
2017-08-10T09:57:12.370Z,10.33
2017-08-10T09:59:38.665Z,10.23
2017-08-10T10:02:04.953Z,9.33
2017-08-10T10:04:31.277Z,9.83
2017-08-10T10:06:57.560Z,10.13
2017-08-10T10:09:25.580Z,8.17
2017-08-10T10:11:52.901Z,8.80
2017-08-10T10:14:19.188Z,9.53
2017-08-10T10:16:46.473Z,11.43
2017-08-10T10:19:13.508Z,11.67
2017-08-10T10:21:39.804Z,11.60
2017-08-10T10:24:06.114Z,11.43
2017-08-10T10:26:32.413Z,11.30
2017-08-10T10:28:58.700Z,9.00
2017-08-10T10:31:25.004Z,9.00
2017-08-10T10:33:51.300Z,9.40
2017-08-10T10:36:17.593Z,10.50
2017-08-10T10:38:43.873Z,11.50
2017-08-10T10:41:10.189Z,11.43
2017-08-10T10:43:36.485Z,11.13
2017-08-10T10:46:02.765Z,12.07
2017-08-10T10:48:29.080Z,12.60
2017-08-10T10:50:55.374Z,10.87
2017-08-10T10:53:21.673Z,11.33
2017-08-10T10:55:47.960Z,11.27
2017-08-10T10:58:15.083Z,12.03
2017-08-10T11:00:41.385Z,10.57
2017-08-10T11:03:07.677Z,9.97
2017-08-10T11:05:33.996Z,11.00
2017-08-10T11:08:00.300Z,10.73
2017-08-10T11:10:26.633Z,8.97
2017-08-10T11:12:52.949Z,9.60
2017-08-10T11:15:19.253Z,10.77
2017-08-10T11:17:45.579Z,10.30
2017-08-10T11:20:11.909Z,10.07
2017-08-10T11:22:38.237Z,10.43
2017-08-10T11:25:04.532Z,10.70
2017-08-10T11:27:31.592Z,9.90
2017-08-10T11:29:57.889Z,10.37
2017-08-10T11:32:24.207Z,10.10
2017-08-10T11:34:50.500Z,10.10
2017-08-10T11:37:16.797Z,10.90
2017-08-10T11:39:44.836Z,10.80
2017-08-10T11:42:11.161Z,10.17
2017-08-10T11:44:37.475Z,11.90
2017-08-10T11:47:03.785Z,11.90
2017-08-10T11:49:30.081Z,12.27
2017-08-10T11:51:57.147Z,13.07
2017-08-10T11:54:24.460Z,15.10
2017-08-10T11:56:50.764Z,16.17
2017-08-10T11:59:17.069Z,15.03
2017-08-10T12:01:43.377Z,14.33
2017-08-10T12:04:09.722Z,13.40
2017-08-10T12:06:36.024Z,12.53
2017-08-10T12:09:02.361Z,14.13
2017-08-10T12:11:28.657Z,14.07
2017-08-10T12:13:54.965Z,13.60
2017-08-10T12:16:22.261Z,13.50
2017-08-10T12:18:48.589Z,13.30
2017-08-10T12:21:14.885Z,14.07
2017-08-10T12:23:41.205Z,14.37
2017-08-10T12:26:07.497Z,13.70
2017-08-10T12:28:33.791Z,13.73
2017-08-10T12:31:01.090Z,15.00
2017-08-10T12:33:27.405Z,15.10
2017-08-10T12:35:53.709Z,15.60
2017-08-10T12:38:20.009Z,15.30
2017-08-10T12:40:46.301Z,14.33
2017-08-10T12:43:12.597Z,15.23
2017-08-10T12:45:38.901Z,16.37
2017-08-10T12:48:05.197Z,14.70
2017-08-10T12:50:31.501Z,15.97
2017-08-10T12:52:57.803Z,15.13
2017-08-10T12:55:24.098Z,14.80
2017-08-10T12:57:50.394Z,16.47
2017-08-10T13:00:16.701Z,15.97
2017-08-10T13:02:43.005Z,16.13
2017-08-10T13:05:09.323Z,16.43
2017-08-10T13:07:35.621Z,17.00
2017-08-10T13:10:02.669Z,17.13
2017-08-10T13:12:28.989Z,16.90
2017-08-10T13:14:55.292Z,16.90
2017-08-10T13:17:21.577Z,16.50
2017-08-10T13:19:47.868Z,15.33
2017-08-10T13:22:14.157Z,15.43
2017-08-10T13:24:40.444Z,16.37
2017-08-10T13:27:07.489Z,17.67
2017-08-10T13:29:33.786Z,15.97
2017-08-10T13:32:01.082Z,16.37
2017-08-10T13:34:27.382Z,17.70
2017-08-10T13:36:53.678Z,17.50
2017-08-10T13:39:20.001Z,17.50
2017-08-10T13:41:47.297Z,16.63
2017-08-10T13:44:13.589Z,16.97
2017-08-10T13:46:39.945Z,15.57
2017-08-10T13:49:06.251Z,18.67
2017-08-10T13:51:32.554Z,17.03
2017-08-10T13:53:58.904Z,16.40
2017-08-10T13:56:25.200Z,17.80
2017-08-10T13:58:51.508Z,16.20
2017-08-10T14:01:18.540Z,16.87
2017-08-10T14:03:44.854Z,16.23
2017-08-10T14:06:11.164Z,15.70
2017-08-10T14:08:37.510Z,15.60
2017-08-10T14:11:03.828Z,15.60
2017-08-10T14:13:30.133Z,14.93
2017-08-10T14:15:57.464Z,14.80
2017-08-10T14:18:23.782Z,15.53
2017-08-10T14:20:50.081Z,15.73
2017-08-10T14:23:17.401Z,14.20
2017-08-10T14:25:43.715Z,11.83
2017-08-10T14:28:10.757Z,12.57
2017-08-10T14:30:37.813Z,12.27
2017-08-10T14:33:04.102Z,4.23
2017-08-10T14:35:30.393Z,3.20
2017-08-10T14:37:56.705Z,1.33
2017-08-10T14:40:23.028Z,0.67
2017-08-10T14:42:49.322Z,0.40
2017-08-10T14:45:16.131Z,0.37
2017-08-10T14:47:42.422Z,0.20
2017-08-10T14:50:08.721Z,0.30
2017-08-10T14:52:35.013Z,0.20
2017-08-10T14:55:01.303Z,0.20
2017-08-10T14:57:28.340Z,0.30
2017-08-10T14:59:54.657Z,0.30
2017-08-10T15:02:20.969Z,0.20
2017-08-10T15:04:47.269Z,0.30
2017-08-10T15:07:13.566Z,0.20
2017-08-10T15:09:40.605Z,0.20
2017-08-10T15:12:06.889Z,0.20
2017-08-10T15:14:33.189Z,0.20
2017-08-10T15:16:59.485Z,0.20
2017-08-10T15:19:25.789Z,0.20
2017-08-10T15:21:52.073Z,0.20
2017-08-10T15:24:18.378Z,0.20
2017-08-10T15:26:45.422Z,0.37
2017-08-10T15:29:11.725Z,0.20
2017-08-10T15:31:38.012Z,0.33
2017-08-10T15:34:04.301Z,0.20
2017-08-10T15:36:30.598Z,0.40
2017-08-10T15:38:56.890Z,0.30
2017-08-10T15:41:23.913Z,0.20
2017-08-10T15:43:50.208Z,0.33
2017-08-10T15:46:16.504Z,0.43
2017-08-10T15:48:42.830Z,0.50
2017-08-10T15:51:09.125Z,0.40
2017-08-10T15:53:35.424Z,0.40
2017-08-10T15:56:01.764Z,0.43
2017-08-10T15:58:28.069Z,0.50
2017-08-10T16:00:54.357Z,0.77
2017-08-10T16:03:21.395Z,0.60
2017-08-10T16:05:47.730Z,0.63
2017-08-10T16:08:14.042Z,0.63
2017-08-10T16:10:40.338Z,0.70
2017-08-10T16:13:07.616Z,0.60
2017-08-10T16:15:34.912Z,0.60
2017-08-10T16:18:01.948Z,0.95
2017-08-10T16:20:28.234Z,0.63
2017-08-10T16:22:54.534Z,0.80
2017-08-10T16:25:20.841Z,0.40
2017-08-10T16:27:47.130Z,0.70
2017-08-10T16:30:13.441Z,0.60
2017-08-10T16:32:39.761Z,0.60
2017-08-10T16:35:06.065Z,1.60
2017-08-10T16:37:33.117Z,2.20
2017-08-10T16:40:00.405Z,0.93
2017-08-10T16:42:26.716Z,1.00
2017-08-10T16:44:53.041Z,1.00
2017-08-10T16:47:19.336Z,1.70
2017-08-10T16:49:47.395Z,0.90
2017-08-10T16:52:13.701Z,0.60
2017-08-10T16:54:40.008Z,0.82
2017-08-10T16:57:06.302Z,0.70
2017-08-10T16:59:33.573Z,1.00
2017-08-10T17:01:59.860Z,0.60
2017-08-10T17:04:26.149Z,1.13
2017-08-10T17:06:52.461Z,0.73
2017-08-10T17:09:18.765Z,0.70
2017-08-10T17:11:45.081Z,0.67
2017-08-10T17:14:12.386Z,0.90
2017-08-10T17:16:38.682Z,0.60
2017-08-10T17:19:05.988Z,0.70
2017-08-10T17:21:32.285Z,0.50
2017-08-10T17:23:58.599Z,0.55
2017-08-10T17:26:25.685Z,0.40
2017-08-10T17:28:53.029Z,0.60
2017-08-10T17:31:19.317Z,0.67
2017-08-10T17:33:46.606Z,0.67
2017-08-10T17:36:12.925Z,0.80
2017-08-10T17:38:39.212Z,0.50
2017-08-10T17:41:05.513Z,0.50
2017-08-10T17:43:31.813Z,0.63
2017-08-10T17:45:58.109Z,0.47
2017-08-10T17:48:24.409Z,0.53
2017-08-10T17:50:50.698Z,1.27
2017-08-10T17:53:17.005Z,1.40
2017-08-10T17:55:44.061Z,0.70
2017-08-10T17:58:11.109Z,0.60
2017-08-10T18:00:38.148Z,0.53
2017-08-10T18:03:04.438Z,0.70
2017-08-10T18:05:30.961Z,0.67
2017-08-10T18:07:57.065Z,0.50
2017-08-10T18:10:23.385Z,0.50
2017-08-10T18:12:49.690Z,0.60
2017-08-10T18:15:16.022Z,0.70
2017-08-10T18:17:42.332Z,0.50
2017-08-10T18:20:08.643Z,0.52
2017-08-10T18:22:34.954Z,0.70
2017-08-10T18:25:01.249Z,3.67
2017-08-10T18:27:28.289Z,1.98
2017-08-10T18:29:54.597Z,1.25
2017-08-10T18:32:20.909Z,1.12
2017-08-10T18:34:47.204Z,1.30
2017-08-10T18:37:13.514Z,1.27
2017-08-10T18:39:40.569Z,3.22
2017-08-10T18:42:07.621Z,1.93
2017-08-10T18:44:33.929Z,0.83
2017-08-10T18:47:00.235Z,0.88
2017-08-10T18:49:26.547Z,1.40
2017-08-10T18:51:52.846Z,0.90
2017-08-10T18:54:19.146Z,0.70
2017-08-10T18:56:45.450Z,0.60
2017-08-10T18:59:11.749Z,0.80
2017-08-10T19:01:38.049Z,1.00
2017-08-10T19:04:05.094Z,0.65
2017-08-10T19:06:31.780Z,1.00
2017-08-10T19:08:58.069Z,0.80
2017-08-10T19:11:24.377Z,0.83
2017-08-10T19:13:50.663Z,0.60
2017-08-10T19:16:16.973Z,0.80
2017-08-10T19:18:44.282Z,0.60
2017-08-10T19:21:10.585Z,0.70
2017-08-10T19:23:36.890Z,0.73
2017-08-10T19:26:03.181Z,0.80
2017-08-10T19:28:29.490Z,1.10
2017-08-10T19:30:55.810Z,1.10
2017-08-10T19:33:22.127Z,0.80
2017-08-10T19:35:48.430Z,0.93
2017-08-10T19:38:14.730Z,2.85
2017-08-10T19:40:41.793Z,1.35
2017-08-10T19:43:08.829Z,1.13
2017-08-10T19:45:35.876Z,1.23
2017-08-10T19:48:02.916Z,0.70
2017-08-10T19:50:29.226Z,1.20
2017-08-10T19:52:55.532Z,1.40
2017-08-10T19:55:21.846Z,0.60
2017-08-10T19:57:48.146Z,0.80
2017-08-10T20:00:14.441Z,0.57
2017-08-10T20:02:40.737Z,0.73
2017-08-10T20:05:07.076Z,0.60
2017-08-10T20:07:33.372Z,0.93
2017-08-10T20:10:00.405Z,0.80
2017-08-10T20:12:27.471Z,0.50
2017-08-10T20:14:53.789Z,0.70
2017-08-10T20:17:20.837Z,0.70
2017-08-10T20:19:47.128Z,0.68
2017-08-10T20:22:13.434Z,0.50
2017-08-10T20:24:39.750Z,0.55
2017-08-10T20:27:06.061Z,1.05
2017-08-10T20:29:32.357Z,0.68
2017-08-10T20:31:58.657Z,1.08
2017-08-10T20:34:24.957Z,0.80
2017-08-10T20:36:51.262Z,0.70
2017-08-10T20:39:18.318Z,0.60
2017-08-10T20:41:45.363Z,0.83
2017-08-10T20:44:12.413Z,0.60
2017-08-10T20:46:38.722Z,0.68
2017-08-10T20:49:05.037Z,0.50
2017-08-10T20:51:31.342Z,0.75
2017-08-10T20:53:57.636Z,0.85
2017-08-10T20:56:24.686Z,0.80
2017-08-10T20:58:50.972Z,0.98
2017-08-10T21:01:17.284Z,0.65
2017-08-10T21:03:43.585Z,0.50
2017-08-10T21:06:09.873Z,0.50
2017-08-10T21:08:36.185Z,0.60
2017-08-10T21:11:02.510Z,0.50
2017-08-10T21:13:28.812Z,0.80
2017-08-10T21:15:55.112Z,0.62
2017-08-10T21:18:22.156Z,0.50
2017-08-10T21:20:49.213Z,0.50
2017-08-10T21:23:15.526Z,0.55
2017-08-10T21:25:42.564Z,0.55
2017-08-10T21:28:08.865Z,0.88
2017-08-10T21:30:35.186Z,0.60
2017-08-10T21:33:01.487Z,0.80
2017-08-10T21:35:27.801Z,0.70
2017-08-10T21:37:54.924Z,0.55
2017-08-10T21:40:21.231Z,0.60
2017-08-10T21:42:47.555Z,0.50
2017-08-10T21:45:13.891Z,0.67
2017-08-10T21:47:40.229Z,0.50
2017-08-10T21:50:06.539Z,0.70
2017-08-10T21:52:32.837Z,1.00
2017-08-10T21:54:59.866Z,0.80
2017-08-10T21:57:26.148Z,0.70
2017-08-10T21:59:52.459Z,0.90
2017-08-10T22:02:18.813Z,0.77
2017-08-10T22:04:45.100Z,0.97
2017-08-10T22:07:12.149Z,0.70
2017-08-10T22:09:38.449Z,0.70
2017-08-10T22:12:04.744Z,0.50
2017-08-10T22:14:31.036Z,0.40
2017-08-10T22:16:58.082Z,0.50
2017-08-10T22:19:25.142Z,0.53
2017-08-10T22:21:51.454Z,0.50
2017-08-10T22:24:18.509Z,0.60
2017-08-10T22:26:45.564Z,0.60
2017-08-10T22:29:11.865Z,0.40
2017-08-10T22:31:39.921Z,0.70
2017-08-10T22:34:06.213Z,0.52
2017-08-10T22:36:32.561Z,0.65
2017-08-10T22:38:58.848Z,0.60
2017-08-10T22:41:25.173Z,0.80
2017-08-10T22:43:51.504Z,0.40
2017-08-10T22:46:17.799Z,0.37
2017-08-10T22:48:44.105Z,0.47
2017-08-10T22:51:10.400Z,0.70
2017-08-10T22:53:36.705Z,0.50
2017-08-10T22:56:03.006Z,0.63
2017-08-10T22:58:30.313Z,0.70
2017-08-10T23:00:56.642Z,0.83
2017-08-10T23:03:22.937Z,0.65
2017-08-10T23:05:49.229Z,0.90
2017-08-10T23:08:15.536Z,1.00
2017-08-10T23:10:41.937Z,1.00
2017-08-10T23:13:08.994Z,1.00
2017-08-10T23:15:35.301Z,1.10
2017-08-10T23:18:01.681Z,1.00
2017-08-10T23:20:27.973Z,1.00
2017-08-10T23:22:54.286Z,0.70
2017-08-10T23:25:21.594Z,0.88
2017-08-10T23:27:47.894Z,1.37
2017-08-10T23:30:15.944Z,1.10
2017-08-10T23:32:42.249Z,0.93
2017-08-10T23:35:08.540Z,1.17
2017-08-10T23:37:34.841Z,0.93
2017-08-10T23:40:01.885Z,1.10
2017-08-10T23:42:28.183Z,1.23
2017-08-10T23:44:54.489Z,0.87
2017-08-10T23:47:20.805Z,1.17
2017-08-10T23:49:47.094Z,1.48
2017-08-10T23:52:13.402Z,1.60
2017-08-10T23:54:39.718Z,1.47
2017-08-10T23:57:06.461Z,1.30
2017-08-10T23:59:32.757Z,1.27
